createdAt,value
2018-02-11T00:00:49.048Z,931.12
2018-02-11T00:02:02.169Z,931.12
2018-02-11T00:03:15.306Z,931.14
2018-02-11T00:04:28.423Z,931.19
2018-02-11T00:05:41.583Z,931.21
2018-02-11T00:06:54.778Z,931.21
2018-02-11T00:08:07.886Z,931.21
2018-02-11T00:09:21.049Z,931.22
2018-02-11T00:10:34.220Z,931.24
2018-02-11T00:11:47.420Z,931.22
2018-02-11T00:13:00.655Z,931.23
2018-02-11T00:14:13.810Z,931.28
2018-02-11T00:15:26.994Z,931.24
2018-02-11T00:16:40.124Z,931.22
2018-02-11T00:17:53.205Z,931.25
2018-02-11T00:19:06.379Z,931.26
2018-02-11T00:20:19.586Z,931.31
2018-02-11T00:21:32.759Z,931.26
2018-02-11T00:22:45.998Z,931.28
2018-02-11T00:23:59.164Z,931.32
2018-02-11T00:25:12.330Z,931.36
2018-02-11T00:26:25.485Z,931.37
2018-02-11T00:27:38.426Z,931.41
2018-02-11T00:28:51.696Z,931.36
2018-02-11T00:30:04.872Z,931.4
2018-02-11T00:31:18.051Z,931.41
2018-02-11T00:32:31.219Z,931.41
2018-02-11T00:33:44.415Z,931.45
2018-02-11T00:34:57.643Z,931.45
2018-02-11T00:36:10.889Z,931.42
2018-02-11T00:37:24.066Z,931.43
2018-02-11T00:38:37.194Z,931.43
2018-02-11T00:39:50.157Z,931.49
2018-02-11T00:41:02.919Z,931.52
2018-02-11T00:42:16.132Z,931.52
2018-02-11T00:43:29.419Z,931.45
2018-02-11T00:44:42.360Z,931.49
2018-02-11T00:45:55.562Z,931.47
2018-02-11T00:47:08.788Z,931.5
2018-02-11T00:48:21.540Z,931.51
2018-02-11T00:49:34.278Z,931.5
2018-02-11T00:50:47.455Z,931.5
2018-02-11T00:52:00.396Z,931.45
2018-02-11T00:53:13.586Z,931.47
2018-02-11T00:54:26.249Z,931.43
2018-02-11T00:55:39.518Z,931.42
2018-02-11T00:56:52.794Z,931.44
2018-02-11T00:58:06.016Z,931.42
2018-02-11T00:59:19.174Z,931.41
2018-02-11T01:00:31.845Z,931.41
2018-02-11T01:01:45.062Z,931.38
2018-02-11T01:02:58.241Z,931.42
2018-02-11T01:04:11.361Z,931.42
2018-02-11T01:05:24.537Z,931.42
2018-02-11T01:06:37.747Z,931.41
2018-02-11T01:07:50.901Z,931.34
2018-02-11T01:09:04.160Z,931.36
2018-02-11T01:10:17.328Z,931.33
2018-02-11T01:11:30.473Z,931.35
2018-02-11T01:12:43.687Z,931.29
2018-02-11T01:13:56.865Z,931.31
2018-02-11T01:15:10.096Z,931.3
2018-02-11T01:16:23.259Z,931.28
2018-02-11T01:17:36.527Z,931.27
2018-02-11T01:18:49.729Z,931.3
2018-02-11T01:20:02.882Z,931.28
2018-02-11T01:21:16.163Z,931.3
2018-02-11T01:22:29.323Z,931.31
2018-02-11T01:23:42.599Z,931.28
2018-02-11T01:24:55.824Z,931.27
2018-02-11T01:26:09.086Z,931.3
2018-02-11T01:27:22.266Z,931.3
2018-02-11T01:28:34.934Z,931.31
2018-02-11T01:29:48.175Z,931.32
2018-02-11T01:31:01.292Z,931.28
2018-02-11T01:32:14.086Z,931.26
2018-02-11T01:33:27.292Z,931.3
2018-02-11T01:34:40.520Z,931.27
2018-02-11T01:35:53.717Z,931.21
2018-02-11T01:37:06.911Z,931.2
2018-02-11T01:38:20.090Z,931.18
2018-02-11T01:39:33.292Z,931.2
2018-02-11T01:40:46.462Z,931.17
2018-02-11T01:41:59.727Z,931.17
2018-02-11T01:43:12.905Z,931.19
2018-02-11T01:44:26.164Z,931.22
2018-02-11T01:45:39.372Z,931.16
2018-02-11T01:46:52.496Z,931.2
2018-02-11T01:48:05.643Z,931.2
2018-02-11T01:49:18.767Z,931.19
2018-02-11T01:50:31.937Z,931.19
2018-02-11T01:51:45.158Z,931.24
2018-02-11T01:52:57.852Z,931.21
2018-02-11T01:54:11.086Z,931.22
2018-02-11T01:55:24.254Z,931.21
2018-02-11T01:56:37.421Z,931.22
2018-02-11T01:57:50.585Z,931.21
2018-02-11T01:59:03.761Z,931.22
2018-02-11T02:00:16.705Z,931.18
2018-02-11T02:01:29.963Z,931.13
2018-02-11T02:02:43.148Z,931.09
2018-02-11T02:03:56.370Z,931.07
2018-02-11T02:05:09.608Z,931.1
2018-02-11T02:06:22.742Z,931.12
2018-02-11T02:07:35.884Z,931.12
2018-02-11T02:08:49.098Z,931.05
2018-02-11T02:10:02.336Z,931.05
2018-02-11T02:11:15.502Z,930.98
2018-02-11T02:12:28.641Z,930.98
2018-02-11T02:13:41.854Z,931.03
2018-02-11T02:14:55.005Z,931.05
2018-02-11T02:16:08.151Z,931.06
2018-02-11T02:17:21.299Z,931
2018-02-11T02:18:34.471Z,930.98
2018-02-11T02:19:47.599Z,930.99
2018-02-11T02:21:00.764Z,930.96
2018-02-11T02:22:13.954Z,930.96
2018-02-11T02:23:26.983Z,930.94
2018-02-11T02:24:40.163Z,930.92
2018-02-11T02:25:53.322Z,930.95
2018-02-11T02:27:06.501Z,930.96
2018-02-11T02:28:19.224Z,930.97
2018-02-11T02:29:32.425Z,930.95
2018-02-11T02:30:45.592Z,930.91
2018-02-11T02:31:58.812Z,930.88
2018-02-11T02:33:12.009Z,930.89
2018-02-11T02:34:24.736Z,930.91
2018-02-11T02:35:37.918Z,930.87
2018-02-11T02:36:51.151Z,930.83
2018-02-11T02:38:03.851Z,930.88
2018-02-11T02:39:16.998Z,930.86
2018-02-11T02:40:30.189Z,930.86
2018-02-11T02:41:43.369Z,930.89
2018-02-11T02:42:56.542Z,930.87
2018-02-11T02:44:09.723Z,930.89
2018-02-11T02:45:22.903Z,930.88
2018-02-11T02:46:35.630Z,930.84
2018-02-11T02:47:48.850Z,930.85
2018-02-11T02:49:02.069Z,930.82
2018-02-11T02:50:15.023Z,930.83
2018-02-11T02:51:28.262Z,930.85
2018-02-11T02:52:41.492Z,930.88
2018-02-11T02:53:53.969Z,930.89
2018-02-11T02:55:07.157Z,930.87
2018-02-11T02:56:20.365Z,930.87
2018-02-11T02:57:33.532Z,930.84
2018-02-11T02:58:46.672Z,930.8
2018-02-11T02:59:59.845Z,930.76
2018-02-11T03:01:13.023Z,930.76
2018-02-11T03:02:25.984Z,930.76
2018-02-11T03:03:39.188Z,930.74
2018-02-11T03:04:52.376Z,930.72
2018-02-11T03:06:05.575Z,930.7
2018-02-11T03:07:18.688Z,930.7
2018-02-11T03:08:31.884Z,930.67
2018-02-11T03:09:45.042Z,930.65
2018-02-11T03:10:58.205Z,930.67
2018-02-11T03:12:11.408Z,930.6
2018-02-11T03:13:24.530Z,930.64
2018-02-11T03:14:37.679Z,930.6
2018-02-11T03:15:50.793Z,930.6
2018-02-11T03:17:03.566Z,930.58
2018-02-11T03:18:16.808Z,930.59
2018-02-11T03:19:30.013Z,930.6
2018-02-11T03:20:43.032Z,930.57
2018-02-11T03:21:56.318Z,930.55
2018-02-11T03:23:09.523Z,930.55
2018-02-11T03:24:22.779Z,930.54
2018-02-11T03:25:35.971Z,930.53
2018-02-11T03:26:49.021Z,930.51
2018-02-11T03:28:02.187Z,930.5
2018-02-11T03:29:15.376Z,930.48
2018-02-11T03:30:28.545Z,930.43
2018-02-11T03:31:41.755Z,930.44
2018-02-11T03:32:54.946Z,930.42
2018-02-11T03:34:08.093Z,930.37
2018-02-11T03:35:21.257Z,930.37
2018-02-11T03:36:34.430Z,930.36
2018-02-11T03:37:47.685Z,930.34
2018-02-11T03:39:00.907Z,930.38
2018-02-11T03:40:14.021Z,930.4
2018-02-11T03:41:26.998Z,930.4
2018-02-11T03:42:40.183Z,930.39
2018-02-11T03:43:53.352Z,930.34
2018-02-11T03:45:06.556Z,930.33
2018-02-11T03:46:19.732Z,930.26
2018-02-11T03:47:32.940Z,930.21
2018-02-11T03:48:46.165Z,930.17
2018-02-11T03:49:59.324Z,930.09
2018-02-11T03:51:12.574Z,930.09
2018-02-11T03:52:25.737Z,930.11
2018-02-11T03:53:38.944Z,930.1
2018-02-11T03:54:52.167Z,930.09
2018-02-11T03:56:05.008Z,930.08
2018-02-11T03:57:18.168Z,930.08
2018-02-11T03:58:31.385Z,930.08
2018-02-11T03:59:44.615Z,930.1
2018-02-11T04:00:57.908Z,930.09
2018-02-11T04:02:11.101Z,930.08
2018-02-11T04:03:24.318Z,930.09
2018-02-11T04:04:37.498Z,930.09
2018-02-11T04:05:50.764Z,930.07
2018-02-11T04:07:03.592Z,930.09
2018-02-11T04:08:16.577Z,930.06
2018-02-11T04:09:29.765Z,930.04
2018-02-11T04:10:42.999Z,930.01
2018-02-11T04:11:56.195Z,930
2018-02-11T04:13:09.398Z,929.97
2018-02-11T04:14:21.619Z,929.93
2018-02-11T04:15:34.858Z,929.91
2018-02-11T04:16:48.035Z,929.86
2018-02-11T04:18:01.174Z,929.89
2018-02-11T04:19:14.319Z,929.87
2018-02-11T04:20:27.486Z,929.91
2018-02-11T04:21:40.692Z,929.86
2018-02-11T04:22:53.367Z,929.85
2018-02-11T04:24:06.535Z,929.87
2018-02-11T04:25:19.707Z,929.81
2018-02-11T04:26:32.849Z,929.83
2018-02-11T04:27:46.044Z,929.85
2018-02-11T04:28:59.270Z,929.82
2018-02-11T04:30:12.501Z,929.86
2018-02-11T04:31:25.708Z,929.88
2018-02-11T04:32:38.424Z,929.86
2018-02-11T04:33:51.691Z,929.87
2018-02-11T04:35:04.949Z,929.9
2018-02-11T04:36:18.136Z,929.84
2018-02-11T04:37:31.281Z,929.84
2018-02-11T04:38:44.487Z,929.81
2018-02-11T04:39:57.692Z,929.76
2018-02-11T04:41:10.907Z,929.73
2018-02-11T04:42:24.098Z,929.68
2018-02-11T04:43:37.317Z,929.69
2018-02-11T04:44:50.484Z,929.67
2018-02-11T04:46:03.724Z,929.62
2018-02-11T04:47:16.942Z,929.58
2018-02-11T04:48:30.126Z,929.59
2018-02-11T04:49:43.325Z,929.57
2018-02-11T04:50:56.563Z,929.58
2018-02-11T04:52:09.766Z,929.58
2018-02-11T04:53:23.001Z,929.55
2018-02-11T04:54:36.206Z,929.58
2018-02-11T04:55:49.396Z,929.52
2018-02-11T04:57:02.528Z,929.48
2018-02-11T04:58:15.689Z,929.45
2018-02-11T04:59:28.884Z,929.46
2018-02-11T05:00:42.000Z,929.47
2018-02-11T05:01:55.197Z,929.48
2018-02-11T05:03:08.404Z,929.49
2018-02-11T05:04:21.549Z,929.49
2018-02-11T05:05:34.705Z,929.52
2018-02-11T05:06:47.626Z,929.55
2018-02-11T05:08:00.773Z,929.54
2018-02-11T05:09:13.984Z,929.55
2018-02-11T05:10:27.188Z,929.53
2018-02-11T05:11:40.363Z,929.5
2018-02-11T05:12:53.559Z,929.5
2018-02-11T05:14:06.767Z,929.45
2018-02-11T05:15:19.735Z,929.44
2018-02-11T05:16:33.066Z,929.46
2018-02-11T05:17:46.182Z,929.46
2018-02-11T05:18:59.352Z,929.5
2018-02-11T05:20:12.531Z,929.48
2018-02-11T05:21:25.729Z,929.47
2018-02-11T05:22:38.458Z,929.47
2018-02-11T05:23:51.616Z,929.47
2018-02-11T05:25:04.839Z,929.45
2018-02-11T05:26:18.021Z,929.5
2018-02-11T05:27:31.330Z,929.48
2018-02-11T05:28:44.502Z,929.48
2018-02-11T05:29:57.385Z,929.5
2018-02-11T05:31:10.641Z,929.47
2018-02-11T05:32:23.828Z,929.48
2018-02-11T05:33:37.021Z,929.43
2018-02-11T05:34:50.313Z,929.45
2018-02-11T05:36:03.188Z,929.47
2018-02-11T05:37:16.386Z,929.5
2018-02-11T05:38:29.547Z,929.48
2018-02-11T05:39:42.787Z,929.5
2018-02-11T05:40:56.018Z,929.47
2018-02-11T05:42:09.288Z,929.45
2018-02-11T05:43:22.424Z,929.45
2018-02-11T05:44:35.638Z,929.42
2018-02-11T05:45:48.895Z,929.46
2018-02-11T05:47:02.112Z,929.36
2018-02-11T05:48:15.262Z,929.35
2018-02-11T05:49:28.172Z,929.32
2018-02-11T05:50:41.364Z,929.36
2018-02-11T05:51:54.582Z,929.35
2018-02-11T05:53:07.817Z,929.39
2018-02-11T05:54:21.054Z,929.35
2018-02-11T05:55:34.285Z,929.33
2018-02-11T05:56:47.248Z,929.34
2018-02-11T05:58:00.441Z,929.37
2018-02-11T05:59:13.698Z,929.36
2018-02-11T06:00:26.896Z,929.42
2018-02-11T06:01:40.105Z,929.44
2018-02-11T06:02:52.768Z,929.37
2018-02-11T06:04:05.518Z,929.37
2018-02-11T06:05:18.750Z,929.35
2018-02-11T06:06:31.954Z,929.34
2018-02-11T06:07:44.640Z,929.34
2018-02-11T06:08:57.805Z,929.34
2018-02-11T06:10:10.955Z,929.39
2018-02-11T06:11:24.168Z,929.4
2018-02-11T06:12:37.391Z,929.38
2018-02-11T06:13:50.571Z,929.37
2018-02-11T06:15:03.689Z,929.32
2018-02-11T06:16:16.669Z,929.31
2018-02-11T06:17:29.927Z,929.33
2018-02-11T06:18:43.091Z,929.3
2018-02-11T06:19:56.398Z,929.29
2018-02-11T06:21:09.139Z,929.31
2018-02-11T06:22:22.295Z,929.25
2018-02-11T06:23:35.496Z,929.29
2018-02-11T06:24:48.732Z,929.29
2018-02-11T06:26:01.649Z,929.28
2018-02-11T06:27:14.794Z,929.26
2018-02-11T06:28:27.991Z,929.25
2018-02-11T06:29:41.249Z,929.23
2018-02-11T06:30:54.478Z,929.22
2018-02-11T06:32:07.616Z,929.21
2018-02-11T06:33:20.763Z,929.21
2018-02-11T06:34:33.960Z,929.21
2018-02-11T06:35:47.192Z,929.18
2018-02-11T06:37:00.353Z,929.23
2018-02-11T06:38:13.603Z,929.23
2018-02-11T06:39:26.749Z,929.26
2018-02-11T06:40:39.969Z,929.26
2018-02-11T06:41:53.168Z,929.23
2018-02-11T06:43:06.400Z,929.21
2018-02-11T06:44:19.637Z,929.19
2018-02-11T06:45:32.883Z,929.16
2018-02-11T06:46:46.119Z,929.14
2018-02-11T06:47:59.265Z,929.12
2018-02-11T06:49:12.456Z,929.1
2018-02-11T06:50:25.436Z,929.09
2018-02-11T06:51:38.628Z,929.12
2018-02-11T06:52:51.856Z,929.13
2018-02-11T06:54:05.056Z,929.13
2018-02-11T06:55:18.315Z,929.12
2018-02-11T06:56:31.534Z,929.14
2018-02-11T06:57:44.693Z,929.11
2018-02-11T06:58:57.703Z,929.13
2018-02-11T07:00:10.847Z,929.14
2018-02-11T07:01:24.047Z,929.11
2018-02-11T07:02:37.293Z,929.09
2018-02-11T07:03:50.223Z,929.1
2018-02-11T07:05:03.375Z,929.14
2018-02-11T07:06:16.598Z,929.14
2018-02-11T07:07:29.717Z,929.11
2018-02-11T07:08:42.866Z,929.13
2018-02-11T07:09:56.024Z,929.16
2018-02-11T07:11:09.202Z,929.15
2018-02-11T07:12:22.404Z,929.17
2018-02-11T07:13:35.542Z,929.2
2018-02-11T07:14:48.777Z,929.17
2018-02-11T07:16:01.984Z,929.16
2018-02-11T07:17:15.179Z,929.12
2018-02-11T07:18:28.432Z,929.1
2018-02-11T07:19:41.548Z,929.1
2018-02-11T07:20:54.752Z,929.12
2018-02-11T07:22:07.957Z,929.16
2018-02-11T07:23:20.674Z,929.2
2018-02-11T07:24:33.852Z,929.22
2018-02-11T07:25:47.027Z,929.2
2018-02-11T07:27:00.210Z,929.22
2018-02-11T07:28:13.426Z,929.22
2018-02-11T07:29:26.578Z,929.23
2018-02-11T07:30:39.772Z,929.22
2018-02-11T07:31:52.992Z,929.2
2018-02-11T07:33:06.106Z,929.23
2018-02-11T07:34:19.349Z,929.2
2018-02-11T07:35:32.521Z,929.2
2018-02-11T07:36:45.202Z,929.21
2018-02-11T07:37:57.910Z,929.19
2018-02-11T07:39:11.143Z,929.2
2018-02-11T07:40:24.316Z,929.21
2018-02-11T07:41:37.543Z,929.25
2018-02-11T07:42:50.688Z,929.23
2018-02-11T07:44:03.807Z,929.26
2018-02-11T07:45:17.024Z,929.27
2018-02-11T07:46:30.197Z,929.32
2018-02-11T07:47:43.404Z,929.38
2018-02-11T07:48:56.589Z,929.41
2018-02-11T07:50:09.798Z,929.51
2018-02-11T07:51:22.952Z,929.53
2018-02-11T07:52:35.816Z,929.5
2018-02-11T07:53:49.022Z,929.5
2018-02-11T07:55:02.141Z,929.49
2018-02-11T07:56:15.377Z,929.5
2018-02-11T07:57:28.632Z,929.49
2018-02-11T07:58:41.809Z,929.53
2018-02-11T07:59:54.957Z,929.5
2018-02-11T08:01:08.187Z,929.52
2018-02-11T08:02:21.347Z,929.55
2018-02-11T08:03:34.546Z,929.57
2018-02-11T08:04:47.762Z,929.54
2018-02-11T08:06:01.007Z,929.58
2018-02-11T08:07:13.983Z,929.59
2018-02-11T08:08:27.155Z,929.63
2018-02-11T08:09:40.396Z,929.6
2018-02-11T08:10:53.581Z,929.64
2018-02-11T08:12:06.732Z,929.68
2018-02-11T08:13:19.942Z,929.65
2018-02-11T08:14:33.190Z,929.64
2018-02-11T08:15:46.391Z,929.67
2018-02-11T08:16:59.541Z,929.63
2018-02-11T08:18:12.776Z,929.71
2018-02-11T08:19:25.961Z,929.67
2018-02-11T08:20:38.900Z,929.67
2018-02-11T08:21:52.114Z,929.69
2018-02-11T08:23:05.276Z,929.68
2018-02-11T08:24:18.480Z,929.7
2018-02-11T08:25:31.194Z,929.64
2018-02-11T08:26:44.476Z,929.67
2018-02-11T08:27:57.615Z,929.72
2018-02-11T08:29:10.769Z,929.73
2018-02-11T08:30:23.487Z,929.73
2018-02-11T08:31:36.756Z,929.82
2018-02-11T08:32:49.449Z,929.8
2018-02-11T08:34:02.634Z,929.78
2018-02-11T08:35:15.289Z,929.8
2018-02-11T08:36:28.451Z,929.78
2018-02-11T08:37:41.598Z,929.74
2018-02-11T08:38:54.812Z,929.76
2018-02-11T08:40:39.237Z,929.77
2018-02-11T08:41:52.432Z,929.86
2018-02-11T08:43:05.618Z,929.86
2018-02-11T08:44:18.826Z,929.88
2018-02-11T08:45:32.031Z,929.91
2018-02-11T08:46:45.319Z,929.94
2018-02-11T08:47:58.513Z,929.97
2018-02-11T08:49:42.967Z,929.99
2018-02-11T08:50:56.177Z,930.06
2018-02-11T08:52:09.331Z,930.05
2018-02-11T08:53:22.289Z,930.09
2018-02-11T08:54:35.478Z,930.1
2018-02-11T08:55:48.756Z,930.09
2018-02-11T08:57:02.022Z,930.12
2018-02-11T08:58:15.112Z,930.13
2018-02-11T08:59:28.103Z,930.14
2018-02-11T09:00:41.271Z,930.2
2018-02-11T09:01:54.508Z,930.21
2018-02-11T09:03:07.668Z,930.22
2018-02-11T09:04:20.770Z,930.27
2018-02-11T09:05:34.017Z,930.32
2018-02-11T09:06:47.176Z,930.37
2018-02-11T09:08:00.354Z,930.36
2018-02-11T09:09:13.484Z,930.36
2018-02-11T09:10:26.685Z,930.4
2018-02-11T09:11:39.349Z,930.43
2018-02-11T09:12:52.461Z,930.44
2018-02-11T09:14:05.599Z,930.46
2018-02-11T09:15:18.721Z,930.43
2018-02-11T09:16:31.926Z,930.43
2018-02-11T09:17:45.096Z,930.49
2018-02-11T09:18:58.236Z,930.47
2018-02-11T09:20:11.434Z,930.51
2018-02-11T09:21:24.691Z,930.52
2018-02-11T09:22:37.895Z,930.56
2018-02-11T09:23:51.066Z,930.54
2018-02-11T09:25:04.200Z,930.51
2018-02-11T09:26:17.337Z,930.53
2018-02-11T09:27:30.489Z,930.52
2018-02-11T09:28:43.702Z,930.56
2018-02-11T09:29:56.902Z,930.58
2018-02-11T09:31:10.116Z,930.6
2018-02-11T09:32:23.308Z,930.63
2018-02-11T09:33:36.525Z,930.69
2018-02-11T09:34:49.687Z,930.68
2018-02-11T09:36:02.828Z,930.61
2018-02-11T09:37:15.961Z,930.63
2018-02-11T09:38:29.141Z,930.63
2018-02-11T09:39:42.344Z,930.61
2018-02-11T09:40:55.683Z,930.64
2018-02-11T09:42:08.895Z,930.64
2018-02-11T09:43:22.085Z,930.69
2018-02-11T09:44:35.398Z,930.67
2018-02-11T09:45:48.608Z,930.7
2018-02-11T09:47:01.802Z,930.72
2018-02-11T09:48:15.037Z,930.71
2018-02-11T09:49:28.223Z,930.79
2018-02-11T09:50:41.483Z,930.79
2018-02-11T09:51:54.655Z,930.83
2018-02-11T09:53:07.845Z,930.86
2018-02-11T09:54:21.041Z,930.83
2018-02-11T09:55:34.211Z,930.87
2018-02-11T09:56:47.374Z,930.92
2018-02-11T09:58:00.549Z,930.91
2018-02-11T09:59:13.755Z,930.89
2018-02-11T10:00:26.981Z,930.87
2018-02-11T10:01:40.200Z,930.94
2018-02-11T10:02:53.400Z,930.9
2018-02-11T10:04:06.560Z,930.95
2018-02-11T10:05:19.458Z,931
2018-02-11T10:06:32.594Z,930.98
2018-02-11T10:07:45.845Z,931
2018-02-11T10:08:59.092Z,930.99
2018-02-11T10:10:12.226Z,931.04
2018-02-11T10:11:25.187Z,931.06
2018-02-11T10:12:38.358Z,931.07
2018-02-11T10:13:51.586Z,931.1
2018-02-11T10:15:04.803Z,931.11
2018-02-11T10:16:17.995Z,931.1
2018-02-11T10:17:31.116Z,931.13
2018-02-11T10:18:44.307Z,931.08
2018-02-11T10:19:57.459Z,931.09
2018-02-11T10:21:10.676Z,931.05
2018-02-11T10:22:23.878Z,931.05
2018-02-11T10:23:36.522Z,931.06
2018-02-11T10:24:49.251Z,931.09
2018-02-11T10:26:02.412Z,931.12
2018-02-11T10:27:15.612Z,931.14
2018-02-11T10:28:28.891Z,931.12
2018-02-11T10:29:41.646Z,931.16
2018-02-11T10:30:54.873Z,931.16
2018-02-11T10:32:08.078Z,931.18
2018-02-11T10:33:21.293Z,931.18
2018-02-11T10:34:34.483Z,931.2
2018-02-11T10:35:47.690Z,931.2
2018-02-11T10:37:00.881Z,931.17
2018-02-11T10:38:13.647Z,931.19
2018-02-11T10:39:26.796Z,931.21
2018-02-11T10:40:40.000Z,931.24
2018-02-11T10:41:53.215Z,931.25
2018-02-11T10:43:06.366Z,931.27
2018-02-11T10:44:19.593Z,931.25
2018-02-11T10:45:32.769Z,931.25
2018-02-11T10:46:45.914Z,931.25
2018-02-11T10:47:59.122Z,931.23
2018-02-11T10:49:12.306Z,931.3
2018-02-11T10:50:56.661Z,931.28
2018-02-11T10:52:09.762Z,931.34
2018-02-11T10:53:22.992Z,931.34
2018-02-11T10:54:36.154Z,931.31
2018-02-11T10:55:49.234Z,931.29
2018-02-11T10:57:02.434Z,931.3
2018-02-11T10:58:15.571Z,931.31
2018-02-11T10:59:28.451Z,931.31
2018-02-11T11:00:41.666Z,931.35
2018-02-11T11:01:54.894Z,931.34
2018-02-11T11:03:08.017Z,931.36
2018-02-11T11:04:21.150Z,931.34
2018-02-11T11:05:34.353Z,931.38
2018-02-11T11:06:47.257Z,931.35
2018-02-11T11:08:00.474Z,931.38
2018-02-11T11:09:13.721Z,931.45
2018-02-11T11:10:26.609Z,931.44
2018-02-11T11:11:39.819Z,931.46
2018-02-11T11:12:53.072Z,931.48
2018-02-11T11:14:06.264Z,931.46
2018-02-11T11:15:19.519Z,931.46
2018-02-11T11:16:32.132Z,931.43
2018-02-11T11:17:45.374Z,931.43
2018-02-11T11:18:58.613Z,931.42
2018-02-11T11:20:11.551Z,931.44
2018-02-11T11:21:24.812Z,931.41
2018-02-11T11:22:38.031Z,931.39
2018-02-11T11:23:51.030Z,931.42
2018-02-11T11:25:04.298Z,931.4
2018-02-11T11:26:17.527Z,931.37
2018-02-11T11:27:30.788Z,931.4
2018-02-11T11:28:43.983Z,931.43
2018-02-11T11:29:57.194Z,931.45
2018-02-11T11:31:10.403Z,931.46
2018-02-11T11:32:23.567Z,931.43
2018-02-11T11:33:36.776Z,931.44
2018-02-11T11:34:49.963Z,931.44
2018-02-11T11:36:03.161Z,931.44
2018-02-11T11:37:16.307Z,931.45
2018-02-11T11:38:29.473Z,931.44
2018-02-11T11:39:42.655Z,931.43
2018-02-11T11:40:55.915Z,931.41
2018-02-11T11:42:09.146Z,931.4
2018-02-11T11:43:22.372Z,931.42
2018-02-11T11:44:35.127Z,931.41
2018-02-11T11:45:48.287Z,931.36
2018-02-11T11:47:01.531Z,931.39
2018-02-11T11:48:14.714Z,931.38
2018-02-11T11:49:27.844Z,931.39
2018-02-11T11:50:41.027Z,931.4
2018-02-11T11:51:54.257Z,931.42
2018-02-11T11:53:07.387Z,931.43
2018-02-11T11:54:20.639Z,931.44
2018-02-11T11:55:33.825Z,931.43
2018-02-11T11:56:47.104Z,931.4
2018-02-11T11:58:00.216Z,931.45
2018-02-11T11:59:13.446Z,931.44
2018-02-11T12:00:26.667Z,931.44
2018-02-11T12:01:39.817Z,931.42
2018-02-11T12:02:53.037Z,931.4
2018-02-11T12:04:06.310Z,931.36
2018-02-11T12:05:19.475Z,931.35
2018-02-11T12:06:32.149Z,931.33
2018-02-11T12:07:45.281Z,931.32
2018-02-11T12:08:58.556Z,931.37
2018-02-11T12:10:11.693Z,931.37
2018-02-11T12:11:24.904Z,931.34
2018-02-11T12:12:38.052Z,931.35
2018-02-11T12:13:51.211Z,931.38
2018-02-11T12:15:04.429Z,931.37
2018-02-11T12:16:17.558Z,931.37
2018-02-11T12:17:30.745Z,931.37
2018-02-11T12:18:43.963Z,931.36
2018-02-11T12:19:57.161Z,931.33
2018-02-11T12:21:09.934Z,931.37
2018-02-11T12:22:22.922Z,931.31
2018-02-11T12:23:36.106Z,931.33
2018-02-11T12:24:49.371Z,931.3
2018-02-11T12:26:02.328Z,931.32
2018-02-11T12:27:15.514Z,931.31
2018-02-11T12:28:28.743Z,931.3
2018-02-11T12:29:41.859Z,931.27
2018-02-11T12:30:55.036Z,931.3
2018-02-11T12:32:08.205Z,931.27
2018-02-11T12:33:21.365Z,931.25
2018-02-11T12:34:34.614Z,931.23
2018-02-11T12:35:47.788Z,931.23
2018-02-11T12:37:00.512Z,931.2
2018-02-11T12:38:13.743Z,931.23
2018-02-11T12:39:26.993Z,931.23
2018-02-11T12:40:40.237Z,931.2
2018-02-11T12:41:53.367Z,931.25
2018-02-11T12:43:06.511Z,931.26
2018-02-11T12:44:19.604Z,931.22
2018-02-11T12:45:32.838Z,931.19
2018-02-11T12:46:46.119Z,931.21
2018-02-11T12:47:59.310Z,931.22
2018-02-11T12:49:12.536Z,931.21
2018-02-11T12:50:25.682Z,931.19
2018-02-11T12:51:38.603Z,931.18
2018-02-11T12:52:51.882Z,931.18
2018-02-11T12:54:05.075Z,931.15
2018-02-11T12:55:18.261Z,931.16
2018-02-11T12:56:31.398Z,931.21
2018-02-11T12:57:44.621Z,931.1
2018-02-11T12:58:57.892Z,931.02
2018-02-11T13:00:11.106Z,931.02
2018-02-11T13:01:24.232Z,931.11
2018-02-11T13:02:37.524Z,931.04
2018-02-11T13:03:49.732Z,931.03
2018-02-11T13:05:02.856Z,930.89
2018-02-11T13:06:16.013Z,930.93
2018-02-11T13:07:29.271Z,930.92
2018-02-11T13:08:42.494Z,930.96
2018-02-11T13:09:55.671Z,930.94
2018-02-11T13:11:08.911Z,930.98
2018-02-11T13:12:22.136Z,930.95
2018-02-11T13:13:35.404Z,930.93
2018-02-11T13:14:48.609Z,930.89
2018-02-11T13:16:01.900Z,930.95
2018-02-11T13:17:15.089Z,930.87
2018-02-11T13:18:28.352Z,930.99
2018-02-11T13:19:41.542Z,930.89
2018-02-11T13:20:54.742Z,930.88
2018-02-11T13:22:07.968Z,930.84
2018-02-11T13:23:21.201Z,930.76
2018-02-11T13:24:34.370Z,930.89
2018-02-11T13:25:47.557Z,930.79
2018-02-11T13:27:00.756Z,930.75
2018-02-11T13:28:13.957Z,930.71
2018-02-11T13:29:27.162Z,930.81
2018-02-11T13:30:40.372Z,930.73
2018-02-11T13:31:53.603Z,930.74
2018-02-11T13:33:06.781Z,930.65
2018-02-11T13:34:20.004Z,930.7
2018-02-11T13:35:33.237Z,930.61
2018-02-11T13:36:46.501Z,930.67
2018-02-11T13:37:59.775Z,930.71
2018-02-11T13:39:13.040Z,930.66
2018-02-11T13:40:25.498Z,930.73
2018-02-11T13:41:38.763Z,930.76
2018-02-11T13:42:51.939Z,930.79
2018-02-11T13:44:05.248Z,930.71
2018-02-11T13:45:18.402Z,930.61
2018-02-11T13:46:31.342Z,930.62
2018-02-11T13:47:44.331Z,930.65
2018-02-11T13:48:57.558Z,930.68
2018-02-11T13:50:10.567Z,930.63
2018-02-11T13:51:23.555Z,930.55
2018-02-11T13:52:37.014Z,930.57
2018-02-11T13:53:50.550Z,930.6
2018-02-11T13:55:03.688Z,930.62
2018-02-11T13:56:17.122Z,930.54
2018-02-11T13:57:30.297Z,930.57
2018-02-11T13:58:43.501Z,930.58
2018-02-11T13:59:56.709Z,930.52
2018-02-11T14:01:10.179Z,930.59
2018-02-11T14:02:23.361Z,930.5
2018-02-11T14:03:36.499Z,930.46
2018-02-11T14:04:49.652Z,930.51
2018-02-11T14:06:02.832Z,930.53
2018-02-11T14:07:16.027Z,930.48
2018-02-11T14:08:29.234Z,930.44
2018-02-11T14:09:42.130Z,930.45
2018-02-11T14:10:54.662Z,930.37
2018-02-11T14:12:07.887Z,930.36
2018-02-11T14:13:21.081Z,930.4
2018-02-11T14:14:34.306Z,930.3
2018-02-11T14:15:47.480Z,930.26
2018-02-11T14:17:00.751Z,930.27
2018-02-11T14:18:13.913Z,930.22
2018-02-11T14:19:27.105Z,930.23
2018-02-11T14:20:40.369Z,930.22
2018-02-11T14:21:53.549Z,930.23
2018-02-11T14:23:06.387Z,930.24
2018-02-11T14:24:19.612Z,930.19
2018-02-11T14:25:32.833Z,930.16
2018-02-11T14:26:45.998Z,930.11
2018-02-11T14:27:59.216Z,930.15
2018-02-11T14:29:12.476Z,930.1
2018-02-11T14:30:25.697Z,930.09
2018-02-11T14:31:38.865Z,930.1
2018-02-11T14:32:52.063Z,929.99
2018-02-11T14:34:05.294Z,930.03
2018-02-11T14:35:17.989Z,929.99
2018-02-11T14:36:31.167Z,929.99
2018-02-11T14:37:44.160Z,930.03
2018-02-11T14:38:57.313Z,929.92
2018-02-11T14:40:10.476Z,929.92
2018-02-11T14:41:23.695Z,929.94
2018-02-11T14:42:36.423Z,930.01
2018-02-11T14:43:49.630Z,930.03
2018-02-11T14:45:02.861Z,929.93
2018-02-11T14:46:16.122Z,929.86
2018-02-11T14:47:29.340Z,929.92
2018-02-11T14:48:42.539Z,929.92
2018-02-11T14:49:55.728Z,929.92
2018-02-11T14:51:08.895Z,929.91
2018-02-11T14:52:21.632Z,929.86
2018-02-11T14:53:34.847Z,929.82
2018-02-11T14:54:47.559Z,929.82
2018-02-11T14:56:00.779Z,929.84
2018-02-11T14:57:14.081Z,929.84
2018-02-11T14:58:27.336Z,929.82
2018-02-11T14:59:40.552Z,929.79
2018-02-11T15:00:53.334Z,929.8
2018-02-11T15:02:06.484Z,929.82
2018-02-11T15:03:19.732Z,929.8
2018-02-11T15:04:32.934Z,929.76
2018-02-11T15:05:46.165Z,929.77
2018-02-11T15:06:59.379Z,929.77
2018-02-11T15:08:12.605Z,929.76
2018-02-11T15:09:25.782Z,929.77
2018-02-11T15:10:38.960Z,929.71
2018-02-11T15:11:52.192Z,929.75
2018-02-11T15:13:05.388Z,929.73
2018-02-11T15:14:18.342Z,929.69
2018-02-11T15:15:31.586Z,929.64
2018-02-11T15:16:44.831Z,929.62
2018-02-11T15:17:58.034Z,929.64